Impacts METAR Board
IDs:

KDHN - Dothan Rgnl, AL, US

Updated at: 1000 UTC 16 Aug 2018
Potential Impact None Slight Moderate High
Time 15/22Z 15/23Z 16/00Z 16/01Z 16/02Z 16/03Z 16/04Z 16/05Z 16/06Z 16/07Z 16/08Z 16/09Z 16/10Z
Temp83 82 80 78 76 75 75 76 75 74 75 74 75
Dewpt72 72 72 73 73 72 73 73 73 73 72 72 73
Altim30.09 30.10 30.11 30.12 30.12 30.13 30.14 30.14 30.13 30.12 30.12 30.13 30.14
VIS10 10 10 10 10 10 8 6 6 5 6 5 5
CIG-- -- -- -- -- -- -- -- -- -- -- -- --
CoverSCTSCTCLRCLRCLRCLRCLRCLRCLRCLRCLRCLRCLR
FltCatVFRVFRVFRVFRVFRVFRVFRVFRVFRMVFRVFRMVFRMVFR
WX--VCTS----------BRBRBRBRBRBR
WDir190170180170170160180001401301500
WSpd9 8 4 3 5 5 4 0 0 4 3 3 0
WGst-- -- -- -- -- -- -- -- -- -- -- -- --
Raw hourly METARs
KDHN 152153Z 19009KT 10SM FEW048 FEW065 SCT090 28/22 A3009 RMK AO2 WSHFT 2050 LTG DSNT NE RAB19E34 SLP184 P0000 T02830222
KDHN 152301Z 17008KT 10SM VCTS FEW047 SCT060 28/22 A3010 RMK AO2 LTG DSNT N AND NE T02780222
KDHN 152353Z 18004KT 10SM CLR 27/22 A3011 RMK AO2 LTG DSNT N AND NW SLP189 60000 T02670222 10339 20267 53008
KDHN 160053Z 17003KT 10SM CLR 26/23 A3012 RMK AO2 SLP192 T02560228
KDHN 160153Z AUTO 17005KT 10SM CLR 24/23 A3012 RMK AO2 SLP195 T02440228
KDHN 160253Z AUTO 16005KT 10SM CLR 24/22 A3013 RMK AO2 SLP198 T02390222 52009
KDHN 160353Z AUTO 18004KT 8SM CLR 24/23 A3014 RMK AO2 SLP199 T02390228
KDHN 160453Z AUTO 00000KT 6SM BR CLR 24/23 A3014 RMK AO2 SLP199 T02440228 403390228
KDHN 160553Z AUTO 00000KT 6SM BR CLR 24/23 A3013 RMK AO2 SLP195 T02390228 10267 20239 58002
KDHN 160653Z AUTO 14004KT 5SM BR CLR 23/23 A3012 RMK AO2 SLP194 T02330228
KDHN 160753Z AUTO 13003KT 6SM BR CLR 24/22 A3012 RMK AO2 SLP192 T02390222
KDHN 160853Z AUTO 15003KT 5SM BR CLR 23/22 A3013 RMK AO2 SLP197 T02330222 53001
KDHN 160953Z AUTO 00000KT 5SM BR CLR 24/23 A3014 RMK AO2 SLP200 T02390228



Page loaded:  10:27 UTC  |   03:27 AM Pacific  |   04:27 AM Mountain  |   05:27 AM Central  |   06:27 AM Eastern

 

ADVISORIES

FORECASTS

FORECASTS

OBSERVATIONS

USER TOOLS

ABOUT US